sensor_id;sensor_type;location;lat;lon;timestamp;P1;durP1;ratioP1;P2;durP2;ratioP2
53959;SDS011;39866;48.638;-2.020;2024-02-04T00:01:56;9.70;;;5.32;;
53959;SDS011;39866;48.638;-2.020;2024-02-04T00:04:22;9.40;;;4.68;;
53959;SDS011;39866;48.638;-2.020;2024-02-04T00:06:48;8.93;;;4.90;;
53959;SDS011;39866;48.638;-2.020;2024-02-04T00:09:13;8.52;;;4.97;;
53959;SDS011;39866;48.638;-2.020;2024-02-04T00:11:39;9.10;;;4.55;;
53959;SDS011;39866;48.638;-2.020;2024-02-04T00:14:04;8.23;;;4.80;;
53959;SDS011;39866;48.638;-2.020;2024-02-04T00:16:29;10.63;;;5.10;;
53959;SDS011;39866;48.638;-2.020;2024-02-04T00:18:55;9.73;;;4.95;;
53959;SDS011;39866;48.638;-2.020;2024-02-04T00:21:20;10.18;;;5.45;;
53959;SDS011;39866;48.638;-2.020;2024-02-04T00:23:45;12.05;;;5.85;;
53959;SDS011;39866;48.638;-2.020;2024-02-04T00:26:11;11.50;;;5.68;;
53959;SDS011;39866;48.638;-2.020;2024-02-04T00:28:36;9.60;;;5.32;;
53959;SDS011;39866;48.638;-2.020;2024-02-04T00:31:01;11.25;;;5.18;;
53959;SDS011;39866;48.638;-2.020;2024-02-04T00:33:27;7.78;;;5.13;;
53959;SDS011;39866;48.638;-2.020;2024-02-04T00:35:52;8.52;;;5.05;;
53959;SDS011;39866;48.638;-2.020;2024-02-04T00:38:17;11.10;;;5.47;;
53959;SDS011;39866;48.638;-2.020;2024-02-04T00:40:43;12.25;;;5.30;;
53959;SDS011;39866;48.638;-2.020;2024-02-04T00:43:08;12.80;;;5.82;;
53959;SDS011;39866;48.638;-2.020;2024-02-04T00:45:33;8.85;;;5.40;;
53959;SDS011;39866;48.638;-2.020;2024-02-04T00:47:59;6.80;;;4.50;;
53959;SDS011;39866;48.638;-2.020;2024-02-04T00:50:24;11.23;;;5.65;;
53959;SDS011;39866;48.638;-2.020;2024-02-04T00:52:49;8.35;;;4.50;;
53959;SDS011;39866;48.638;-2.020;2024-02-04T00:55:15;10.15;;;4.97;;
53959;SDS011;39866;48.638;-2.020;2024-02-04T00:57:40;9.20;;;4.88;;
53959;SDS011;39866;48.638;-2.020;2024-02-04T01:00:06;9.07;;;4.88;;
53959;SDS011;39866;48.638;-2.020;2024-02-04T01:02:32;8.32;;;4.75;;
53959;SDS011;39866;48.638;-2.020;2024-02-04T01:04:59;8.25;;;5.05;;
53959;SDS011;39866;48.638;-2.020;2024-02-04T01:07:24;8.18;;;4.65;;
53959;SDS011;39866;48.638;-2.020;2024-02-04T01:09:49;6.75;;;4.55;;
53959;SDS011;39866;48.638;-2.020;2024-02-04T01:12:15;7.25;;;4.53;;
53959;SDS011;39866;48.638;-2.020;2024-02-04T01:14:40;8.93;;;4.63;;
53959;SDS011;39866;48.638;-2.020;2024-02-04T01:17:05;7.63;;;4.45;;
53959;SDS011;39866;48.638;-2.020;2024-02-04T01:19:30;10.27;;;5.47;;
53959;SDS011;39866;48.638;-2.020;2024-02-04T01:21:56;7.50;;;4.93;;
53959;SDS011;39866;48.638;-2.020;2024-02-04T01:24:23;6.97;;;4.75;;
53959;SDS011;39866;48.638;-2.020;2024-02-04T01:26:48;8.25;;;5.05;;
53959;SDS011;39866;48.638;-2.020;2024-02-04T01:29:14;8.35;;;4.93;;
53959;SDS011;39866;48.638;-2.020;2024-02-04T01:31:39;9.32;;;5.10;;
53959;SDS011;39866;48.638;-2.020;2024-02-04T01:34:04;9.15;;;5.00;;
53959;SDS011;39866;48.638;-2.020;2024-02-04T01:36:30;8.40;;;4.97;;
53959;SDS011;39866;48.638;-2.020;2024-02-04T01:38:55;12.70;;;5.82;;
53959;SDS011;39866;48.638;-2.020;2024-02-04T01:41:21;7.68;;;4.70;;
53959;SDS011;39866;48.638;-2.020;2024-02-04T01:43:46;8.05;;;4.70;;
53959;SDS011;39866;48.638;-2.020;2024-02-04T01:46:12;9.82;;;5.53;;
53959;SDS011;39866;48.638;-2.020;2024-02-04T01:48:37;8.93;;;4.95;;
53959;SDS011;39866;48.638;-2.020;2024-02-04T01:51:03;9.27;;;5.43;;
53959;SDS011;39866;48.638;-2.020;2024-02-04T01:53:29;9.55;;;5.25;;
53959;SDS011;39866;48.638;-2.020;2024-02-04T01:55:59;7.82;;;5.38;;
53959;SDS011;39866;48.638;-2.020;2024-02-04T01:58:24;12.13;;;5.63;;
53959;SDS011;39866;48.638;-2.020;2024-02-04T02:00:50;10.18;;;5.20;;
53959;SDS011;39866;48.638;-2.020;2024-02-04T02:03:16;10.25;;;5.53;;
53959;SDS011;39866;48.638;-2.020;2024-02-04T02:05:42;9.52;;;5.22;;
53959;SDS011;39866;48.638;-2.020;2024-02-04T02:08:07;11.70;;;5.53;;
53959;SDS011;39866;48.638;-2.020;2024-02-04T02:10:34;8.63;;;4.97;;
53959;SDS011;39866;48.638;-2.020;2024-02-04T02:13:01;8.05;;;4.93;;
53959;SDS011;39866;48.638;-2.020;2024-02-04T02:15:34;10.93;;;5.70;;
53959;SDS011;39866;48.638;-2.020;2024-02-04T02:18:07;12.77;;;6.03;;
53959;SDS011;39866;48.638;-2.020;2024-02-04T02:24:10;8.95;;;5.32;;
53959;SDS011;39866;48.638;-2.020;2024-02-04T02:26:31;10.80;;;5.55;;
53959;SDS011;39866;48.638;-2.020;2024-02-04T02:28:56;7.97;;;5.50;;
53959;SDS011;39866;48.638;-2.020;2024-02-04T02:31:22;11.00;;;5.45;;
53959;SDS011;39866;48.638;-2.020;2024-02-04T02:33:47;10.13;;;5.82;;
53959;SDS011;39866;48.638;-2.020;2024-02-04T02:36:13;8.50;;;5.03;;
53959;SDS011;39866;48.638;-2.020;2024-02-04T02:39:03;12.40;;;5.53;;
53959;SDS011;39866;48.638;-2.020;2024-02-04T02:41:34;10.82;;;5.93;;
53959;SDS011;39866;48.638;-2.020;2024-02-04T02:44:00;13.10;;;5.32;;
53959;SDS011;39866;48.638;-2.020;2024-02-04T02:46:27;10.18;;;5.43;;
53959;SDS011;39866;48.638;-2.020;2024-02-04T02:48:53;10.88;;;5.43;;
53959;SDS011;39866;48.638;-2.020;2024-02-04T02:51:19;11.32;;;5.30;;
53959;SDS011;39866;48.638;-2.020;2024-02-04T02:53:44;10.43;;;5.10;;
53959;SDS011;39866;48.638;-2.020;2024-02-04T02:56:09;12.27;;;5.93;;
53959;SDS011;39866;48.638;-2.020;2024-02-04T02:58:35;9.52;;;5.35;;
53959;SDS011;39866;48.638;-2.020;2024-02-04T03:01:00;12.32;;;5.70;;
53959;SDS011;39866;48.638;-2.020;2024-02-04T03:03:25;12.23;;;5.68;;
53959;SDS011;39866;48.638;-2.020;2024-02-04T03:05:51;10.30;;;5.43;;
53959;SDS011;39866;48.638;-2.020;2024-02-04T03:08:16;9.32;;;4.97;;
53959;SDS011;39866;48.638;-2.020;2024-02-04T03:10:42;10.80;;;5.53;;
53959;SDS011;39866;48.638;-2.020;2024-02-04T03:13:07;10.10;;;5.18;;
53959;SDS011;39866;48.638;-2.020;2024-02-04T03:15:33;9.65;;;5.43;;
53959;SDS011;39866;48.638;-2.020;2024-02-04T03:17:58;10.15;;;5.32;;
53959;SDS011;39866;48.638;-2.020;2024-02-04T03:20:23;12.63;;;5.75;;
53959;SDS011;39866;48.638;-2.020;2024-02-04T03:22:49;10.75;;;5.78;;
53959;SDS011;39866;48.638;-2.020;2024-02-04T03:25:14;10.85;;;5.65;;
53959;SDS011;39866;48.638;-2.020;2024-02-04T03:27:39;10.18;;;5.53;;
53959;SDS011;39866;48.638;-2.020;2024-02-04T03:30:05;6.97;;;4.28;;
53959;SDS011;39866;48.638;-2.020;2024-02-04T03:32:31;6.88;;;4.88;;
53959;SDS011;39866;48.638;-2.020;2024-02-04T03:34:59;6.53;;;4.40;;
53959;SDS011;39866;48.638;-2.020;2024-02-04T03:37:28;6.90;;;4.88;;
53959;SDS011;39866;48.638;-2.020;2024-02-04T03:39:53;9.48;;;5.03;;
53959;SDS011;39866;48.638;-2.020;2024-02-04T03:42:19;6.95;;;4.53;;
53959;SDS011;39866;48.638;-2.020;2024-02-04T03:44:46;8.85;;;4.90;;
53959;SDS011;39866;48.638;-2.020;2024-02-04T03:47:11;6.82;;;4.70;;
53959;SDS011;39866;48.638;-2.020;2024-02-04T03:49:37;8.13;;;4.30;;
53959;SDS011;39866;48.638;-2.020;2024-02-04T03:52:02;9.02;;;4.70;;
53959;SDS011;39866;48.638;-2.020;2024-02-04T03:54:28;5.30;;;4.47;;
53959;SDS011;39866;48.638;-2.020;2024-02-04T03:56:53;6.20;;;4.00;;
53959;SDS011;39866;48.638;-2.020;2024-02-04T03:59:18;5.82;;;3.70;;
53959;SDS011;39866;48.638;-2.020;2024-02-04T04:01:48;6.18;;;3.97;;
53959;SDS011;39866;48.638;-2.020;2024-02-04T04:04:14;7.50;;;4.30;;
53959;SDS011;39866;48.638;-2.020;2024-02-04T04:06:40;6.70;;;4.22;;
53959;SDS011;39866;48.638;-2.020;2024-02-04T04:09:05;5.72;;;3.83;;
53959;SDS011;39866;48.638;-2.020;2024-02-04T04:11:31;5.63;;;4.05;;
53959;SDS011;39866;48.638;-2.020;2024-02-04T04:13:56;7.10;;;4.38;;
53959;SDS011;39866;48.638;-2.020;2024-02-04T04:16:21;6.03;;;3.90;;
53959;SDS011;39866;48.638;-2.020;2024-02-04T04:18:47;6.82;;;4.05;;
53959;SDS011;39866;48.638;-2.020;2024-02-04T04:21:13;5.63;;;3.72;;
53959;SDS011;39866;48.638;-2.020;2024-02-04T04:23:38;8.00;;;4.15;;
53959;SDS011;39866;48.638;-2.020;2024-02-04T04:26:03;7.80;;;4.60;;
53959;SDS011;39866;48.638;-2.020;2024-02-04T04:28:29;6.63;;;4.15;;
53959;SDS011;39866;48.638;-2.020;2024-02-04T04:30:54;7.32;;;4.15;;
53959;SDS011;39866;48.638;-2.020;2024-02-04T04:33:20;8.70;;;4.28;;
53959;SDS011;39866;48.638;-2.020;2024-02-04T04:35:45;6.60;;;4.05;;
53959;SDS011;39866;48.638;-2.020;2024-02-04T04:38:10;9.90;;;4.55;;
53959;SDS011;39866;48.638;-2.020;2024-02-04T04:40:36;6.15;;;3.90;;
53959;SDS011;39866;48.638;-2.020;2024-02-04T04:43:01;9.23;;;4.55;;
53959;SDS011;39866;48.638;-2.020;2024-02-04T04:45:26;6.40;;;4.20;;
53959;SDS011;39866;48.638;-2.020;2024-02-04T04:47:52;6.60;;;3.80;;
53959;SDS011;39866;48.638;-2.020;2024-02-04T04:50:17;6.68;;;4.00;;
53959;SDS011;39866;48.638;-2.020;2024-02-04T04:52:42;8.35;;;4.20;;
53959;SDS011;39866;48.638;-2.020;2024-02-04T04:55:08;10.82;;;4.85;;
53959;SDS011;39866;48.638;-2.020;2024-02-04T04:57:33;8.25;;;4.35;;
53959;SDS011;39866;48.638;-2.020;2024-02-04T04:59:58;6.35;;;3.72;;
53959;SDS011;39866;48.638;-2.020;2024-02-04T05:02:29;6.78;;;3.92;;
53959;SDS011;39866;48.638;-2.020;2024-02-04T05:04:54;6.32;;;3.97;;
53959;SDS011;39866;48.638;-2.020;2024-02-04T05:07:19;6.20;;;3.97;;
53959;SDS011;39866;48.638;-2.020;2024-02-04T05:09:46;5.90;;;3.97;;
53959;SDS011;39866;48.638;-2.020;2024-02-04T05:12:12;7.90;;;4.15;;
53959;SDS011;39866;48.638;-2.020;2024-02-04T05:14:37;5.93;;;3.75;;
53959;SDS011;39866;48.638;-2.020;2024-02-04T05:17:03;7.03;;;3.80;;
53959;SDS011;39866;48.638;-2.020;2024-02-04T05:19:30;6.43;;;3.80;;
53959;SDS011;39866;48.638;-2.020;2024-02-04T05:21:55;7.95;;;3.75;;
53959;SDS011;39866;48.638;-2.020;2024-02-04T05:24:20;5.30;;;3.20;;
53959;SDS011;39866;48.638;-2.020;2024-02-04T05:26:46;4.63;;;3.13;;
53959;SDS011;39866;48.638;-2.020;2024-02-04T05:29:11;5.82;;;3.20;;
53959;SDS011;39866;48.638;-2.020;2024-02-04T05:31:40;6.75;;;3.85;;
53959;SDS011;39866;48.638;-2.020;2024-02-04T05:34:09;5.55;;;3.10;;
53959;SDS011;39866;48.638;-2.020;2024-02-04T05:36:35;3.65;;;2.97;;
53959;SDS011;39866;48.638;-2.020;2024-02-04T05:39:13;3.88;;;2.70;;
53959;SDS011;39866;48.638;-2.020;2024-02-04T05:41:39;6.65;;;3.58;;
53959;SDS011;39866;48.638;-2.020;2024-02-04T05:44:05;5.65;;;3.58;;
53959;SDS011;39866;48.638;-2.020;2024-02-04T05:46:31;5.18;;;3.28;;
53959;SDS011;39866;48.638;-2.020;2024-02-04T05:48:57;4.90;;;3.20;;
53959;SDS011;39866;48.638;-2.020;2024-02-04T05:51:22;8.20;;;4.13;;
53959;SDS011;39866;48.638;-2.020;2024-02-04T05:53:48;7.53;;;3.97;;
53959;SDS011;39866;48.638;-2.020;2024-02-04T05:56:13;6.60;;;3.80;;
53959;SDS011;39866;48.638;-2.020;2024-02-04T05:58:39;4.18;;;3.05;;
53959;SDS011;39866;48.638;-2.020;2024-02-04T06:01:04;6.03;;;3.60;;
53959;SDS011;39866;48.638;-2.020;2024-02-04T06:03:30;6.30;;;4.03;;
53959;SDS011;39866;48.638;-2.020;2024-02-04T06:05:55;5.32;;;3.22;;
53959;SDS011;39866;48.638;-2.020;2024-02-04T06:08:20;5.65;;;3.95;;
53959;SDS011;39866;48.638;-2.020;2024-02-04T06:10:46;7.18;;;4.25;;
53959;SDS011;39866;48.638;-2.020;2024-02-04T06:13:11;6.57;;;3.90;;
53959;SDS011;39866;48.638;-2.020;2024-02-04T06:15:36;5.18;;;4.20;;
53959;SDS011;39866;48.638;-2.020;2024-02-04T06:18:02;8.20;;;4.40;;
53959;SDS011;39866;48.638;-2.020;2024-02-04T06:20:27;8.27;;;4.43;;
53959;SDS011;39866;48.638;-2.020;2024-02-04T06:22:52;6.25;;;3.95;;
53959;SDS011;39866;48.638;-2.020;2024-02-04T06:25:18;5.68;;;3.97;;
53959;SDS011;39866;48.638;-2.020;2024-02-04T06:27:43;8.23;;;4.38;;
53959;SDS011;39866;48.638;-2.020;2024-02-04T06:30:08;9.35;;;4.80;;
53959;SDS011;39866;48.638;-2.020;2024-02-04T06:32:34;5.85;;;3.80;;
53959;SDS011;39866;48.638;-2.020;2024-02-04T06:35:00;4.78;;;3.55;;
53959;SDS011;39866;48.638;-2.020;2024-02-04T06:37:25;4.70;;;3.35;;
53959;SDS011;39866;48.638;-2.020;2024-02-04T06:39:51;6.82;;;4.00;;
53959;SDS011;39866;48.638;-2.020;2024-02-04T06:42:17;7.03;;;4.05;;
53959;SDS011;39866;48.638;-2.020;2024-02-04T06:44:43;6.40;;;3.70;;
53959;SDS011;39866;48.638;-2.020;2024-02-04T06:47:09;6.85;;;4.28;;
53959;SDS011;39866;48.638;-2.020;2024-02-04T06:49:37;4.40;;;3.53;;
53959;SDS011;39866;48.638;-2.020;2024-02-04T06:52:03;5.30;;;3.80;;
53959;SDS011;39866;48.638;-2.020;2024-02-04T06:54:28;4.88;;;3.78;;
53959;SDS011;39866;48.638;-2.020;2024-02-04T06:56:53;6.10;;;3.72;;
53959;SDS011;39866;48.638;-2.020;2024-02-04T06:59:19;5.53;;;3.70;;
53959;SDS011;39866;48.638;-2.020;2024-02-04T07:01:44;6.28;;;4.28;;
53959;SDS011;39866;48.638;-2.020;2024-02-04T07:04:10;5.22;;;4.03;;
53959;SDS011;39866;48.638;-2.020;2024-02-04T07:06:35;8.75;;;4.35;;
53959;SDS011;39866;48.638;-2.020;2024-02-04T07:09:00;7.43;;;4.22;;
53959;SDS011;39866;48.638;-2.020;2024-02-04T07:11:26;5.95;;;3.90;;
53959;SDS011;39866;48.638;-2.020;2024-02-04T07:13:51;4.82;;;3.90;;
53959;SDS011;39866;48.638;-2.020;2024-02-04T07:16:23;5.97;;;3.92;;
53959;SDS011;39866;48.638;-2.020;2024-02-04T07:18:49;7.07;;;4.68;;
53959;SDS011;39866;48.638;-2.020;2024-02-04T07:21:14;12.77;;;5.78;;
53959;SDS011;39866;48.638;-2.020;2024-02-04T07:23:39;4.07;;;3.30;;
53959;SDS011;39866;48.638;-2.020;2024-02-04T07:26:04;7.30;;;4.10;;
53959;SDS011;39866;48.638;-2.020;2024-02-04T07:28:30;6.72;;;4.30;;
53959;SDS011;39866;48.638;-2.020;2024-02-04T07:30:55;4.90;;;3.50;;
53959;SDS011;39866;48.638;-2.020;2024-02-04T07:33:20;5.07;;;3.53;;
53959;SDS011;39866;48.638;-2.020;2024-02-04T07:35:46;4.90;;;3.58;;
53959;SDS011;39866;48.638;-2.020;2024-02-04T07:38:11;7.70;;;4.15;;
53959;SDS011;39866;48.638;-2.020;2024-02-04T07:40:36;6.32;;;3.97;;
53959;SDS011;39866;48.638;-2.020;2024-02-04T07:43:02;5.30;;;3.80;;
53959;SDS011;39866;48.638;-2.020;2024-02-04T07:45:27;9.57;;;4.55;;
53959;SDS011;39866;48.638;-2.020;2024-02-04T07:47:52;4.38;;;3.30;;
53959;SDS011;39866;48.638;-2.020;2024-02-04T07:50:18;8.23;;;4.57;;
53959;SDS011;39866;48.638;-2.020;2024-02-04T07:52:43;7.35;;;4.30;;
53959;SDS011;39866;48.638;-2.020;2024-02-04T07:55:09;7.05;;;3.85;;
53959;SDS011;39866;48.638;-2.020;2024-02-04T07:57:35;5.55;;;3.40;;
53959;SDS011;39866;48.638;-2.020;2024-02-04T08:00:00;8.27;;;4.25;;
53959;SDS011;39866;48.638;-2.020;2024-02-04T08:02:28;6.05;;;3.78;;
53959;SDS011;39866;48.638;-2.020;2024-02-04T08:04:54;5.57;;;3.47;;
53959;SDS011;39866;48.638;-2.020;2024-02-04T08:07:19;3.97;;;3.60;;
53959;SDS011;39866;48.638;-2.020;2024-02-04T08:09:45;5.57;;;4.07;;
53959;SDS011;39866;48.638;-2.020;2024-02-04T08:12:11;5.85;;;3.45;;
53959;SDS011;39866;48.638;-2.020;2024-02-04T08:14:36;7.28;;;4.00;;
53959;SDS011;39866;48.638;-2.020;2024-02-04T08:17:02;8.60;;;4.60;;
53959;SDS011;39866;48.638;-2.020;2024-02-04T08:19:27;5.72;;;3.60;;
53959;SDS011;39866;48.638;-2.020;2024-02-04T08:21:53;8.50;;;4.72;;
53959;SDS011;39866;48.638;-2.020;2024-02-04T08:24:18;10.20;;;4.72;;
53959;SDS011;39866;48.638;-2.020;2024-02-04T08:26:44;7.70;;;4.35;;
53959;SDS011;39866;48.638;-2.020;2024-02-04T08:29:10;7.82;;;4.20;;
53959;SDS011;39866;48.638;-2.020;2024-02-04T08:31:36;7.30;;;4.18;;
53959;SDS011;39866;48.638;-2.020;2024-02-04T08:34:01;8.02;;;4.32;;
53959;SDS011;39866;48.638;-2.020;2024-02-04T08:36:28;7.72;;;4.03;;
53959;SDS011;39866;48.638;-2.020;2024-02-04T08:38:55;6.32;;;4.53;;
53959;SDS011;39866;48.638;-2.020;2024-02-04T08:41:21;10.70;;;4.95;;
53959;SDS011;39866;48.638;-2.020;2024-02-04T08:43:46;6.28;;;4.07;;
53959;SDS011;39866;48.638;-2.020;2024-02-04T08:46:12;5.70;;;4.00;;
53959;SDS011;39866;48.638;-2.020;2024-02-04T08:48:37;8.00;;;4.75;;
53959;SDS011;39866;48.638;-2.020;2024-02-04T08:51:03;7.63;;;4.68;;
53959;SDS011;39866;48.638;-2.020;2024-02-04T08:53:28;7.53;;;4.60;;
53959;SDS011;39866;48.638;-2.020;2024-02-04T08:55:54;12.00;;;5.40;;
53959;SDS011;39866;48.638;-2.020;2024-02-04T08:58:19;9.02;;;5.10;;
53959;SDS011;39866;48.638;-2.020;2024-02-04T09:00:45;6.57;;;4.65;;
53959;SDS011;39866;48.638;-2.020;2024-02-04T09:03:10;7.20;;;4.65;;
53959;SDS011;39866;48.638;-2.020;2024-02-04T09:05:35;8.50;;;4.68;;
53959;SDS011;39866;48.638;-2.020;2024-02-04T09:08:01;10.23;;;4.68;;
53959;SDS011;39866;48.638;-2.020;2024-02-04T09:10:26;10.25;;;5.40;;
53959;SDS011;39866;48.638;-2.020;2024-02-04T09:12:52;8.80;;;4.72;;
53959;SDS011;39866;48.638;-2.020;2024-02-04T09:15:17;9.40;;;4.85;;
53959;SDS011;39866;48.638;-2.020;2024-02-04T09:17:43;11.52;;;5.70;;
53959;SDS011;39866;48.638;-2.020;2024-02-04T09:20:08;7.55;;;4.75;;
53959;SDS011;39866;48.638;-2.020;2024-02-04T09:22:34;11.35;;;5.32;;
53959;SDS011;39866;48.638;-2.020;2024-02-04T09:24:59;9.05;;;5.22;;
53959;SDS011;39866;48.638;-2.020;2024-02-04T09:27:25;16.52;;;6.88;;
53959;SDS011;39866;48.638;-2.020;2024-02-04T09:29:50;12.02;;;5.40;;
53959;SDS011;39866;48.638;-2.020;2024-02-04T09:32:16;6.85;;;4.95;;
53959;SDS011;39866;48.638;-2.020;2024-02-04T09:34:41;8.25;;;4.93;;
53959;SDS011;39866;48.638;-2.020;2024-02-04T09:37:06;11.77;;;5.82;;
53959;SDS011;39866;48.638;-2.020;2024-02-04T09:39:32;9.88;;;5.25;;
53959;SDS011;39866;48.638;-2.020;2024-02-04T09:41:57;8.50;;;5.40;;
53959;SDS011;39866;48.638;-2.020;2024-02-04T09:44:24;13.95;;;6.07;;
53959;SDS011;39866;48.638;-2.020;2024-02-04T09:46:50;13.10;;;5.88;;
53959;SDS011;39866;48.638;-2.020;2024-02-04T09:49:16;12.52;;;6.10;;
53959;SDS011;39866;48.638;-2.020;2024-02-04T09:51:41;9.07;;;5.68;;
53959;SDS011;39866;48.638;-2.020;2024-02-04T09:54:07;11.25;;;5.90;;
53959;SDS011;39866;48.638;-2.020;2024-02-04T09:56:35;13.98;;;6.13;;
53959;SDS011;39866;48.638;-2.020;2024-02-04T09:59:03;8.88;;;5.18;;
53959;SDS011;39866;48.638;-2.020;2024-02-04T10:01:29;10.70;;;5.53;;
53959;SDS011;39866;48.638;-2.020;2024-02-04T10:03:56;9.52;;;5.20;;
53959;SDS011;39866;48.638;-2.020;2024-02-04T10:06:21;14.93;;;6.47;;
53959;SDS011;39866;48.638;-2.020;2024-02-04T10:08:46;14.20;;;6.10;;
53959;SDS011;39866;48.638;-2.020;2024-02-04T10:11:13;12.02;;;5.82;;
53959;SDS011;39866;48.638;-2.020;2024-02-04T10:13:42;11.77;;;5.97;;
53959;SDS011;39866;48.638;-2.020;2024-02-04T10:16:09;9.48;;;5.15;;
53959;SDS011;39866;48.638;-2.020;2024-02-04T10:18:34;11.85;;;5.78;;
53959;SDS011;39866;48.638;-2.020;2024-02-04T10:20:59;11.95;;;6.20;;
53959;SDS011;39866;48.638;-2.020;2024-02-04T10:23:25;12.93;;;6.40;;
53959;SDS011;39866;48.638;-2.020;2024-02-04T10:25:57;14.40;;;6.40;;
53959;SDS011;39866;48.638;-2.020;2024-02-04T10:28:23;15.52;;;6.90;;
53959;SDS011;39866;48.638;-2.020;2024-02-04T10:30:49;15.82;;;7.15;;
53959;SDS011;39866;48.638;-2.020;2024-02-04T10:33:15;13.98;;;6.53;;
53959;SDS011;39866;48.638;-2.020;2024-02-04T10:35:42;18.52;;;7.75;;
53959;SDS011;39866;48.638;-2.020;2024-02-04T10:38:07;16.77;;;6.60;;
53959;SDS011;39866;48.638;-2.020;2024-02-04T10:40:33;14.73;;;6.88;;
53959;SDS011;39866;48.638;-2.020;2024-02-04T10:43:00;15.20;;;6.55;;
53959;SDS011;39866;48.638;-2.020;2024-02-04T10:45:30;15.73;;;6.72;;
53959;SDS011;39866;48.638;-2.020;2024-02-04T10:47:57;16.08;;;7.47;;
53959;SDS011;39866;48.638;-2.020;2024-02-04T10:50:26;18.88;;;7.50;;
53959;SDS011;39866;48.638;-2.020;2024-02-04T10:52:54;14.52;;;6.60;;
53959;SDS011;39866;48.638;-2.020;2024-02-04T10:55:27;12.95;;;6.47;;
53959;SDS011;39866;48.638;-2.020;2024-02-04T10:57:55;17.02;;;7.22;;
53959;SDS011;39866;48.638;-2.020;2024-02-04T11:00:21;19.23;;;7.22;;
53959;SDS011;39866;48.638;-2.020;2024-02-04T11:02:47;14.93;;;6.47;;
53959;SDS011;39866;48.638;-2.020;2024-02-04T11:05:14;16.55;;;6.57;;
53959;SDS011;39866;48.638;-2.020;2024-02-04T11:07:42;17.67;;;7.47;;
53959;SDS011;39866;48.638;-2.020;2024-02-04T11:10:08;18.38;;;7.18;;
53959;SDS011;39866;48.638;-2.020;2024-02-04T11:12:35;16.88;;;7.13;;
53959;SDS011;39866;48.638;-2.020;2024-02-04T11:15:04;17.13;;;6.63;;
53959;SDS011;39866;48.638;-2.020;2024-02-04T11:28:09;14.63;;;6.50;;
53959;SDS011;39866;48.638;-2.020;2024-02-04T11:30:36;14.40;;;6.95;;
53959;SDS011;39866;48.638;-2.020;2024-02-04T11:33:05;18.83;;;7.55;;
53959;SDS011;39866;48.638;-2.020;2024-02-04T11:35:34;20.13;;;7.72;;
53959;SDS011;39866;48.638;-2.020;2024-02-04T11:38:01;14.85;;;7.38;;
53959;SDS011;39866;48.638;-2.020;2024-02-04T11:40:31;19.80;;;8.38;;
53959;SDS011;39866;48.638;-2.020;2024-02-04T11:45:38;20.17;;;8.40;;
53959;SDS011;39866;48.638;-2.020;2024-02-04T11:48:08;15.50;;;7.22;;
53959;SDS011;39866;48.638;-2.020;2024-02-04T11:50:37;18.95;;;7.70;;
53959;SDS011;39866;48.638;-2.020;2024-02-04T11:53:09;22.65;;;8.60;;
53959;SDS011;39866;48.638;-2.020;2024-02-04T11:55:36;21.17;;;7.60;;
53959;SDS011;39866;48.638;-2.020;2024-02-04T11:58:04;22.35;;;8.52;;
53959;SDS011;39866;48.638;-2.020;2024-02-04T12:00:33;18.20;;;7.57;;
53959;SDS011;39866;48.638;-2.020;2024-02-04T12:03:00;20.20;;;7.75;;
53959;SDS011;39866;48.638;-2.020;2024-02-04T12:05:30;25.45;;;8.77;;
53959;SDS011;39866;48.638;-2.020;2024-02-04T12:07:57;18.13;;;7.97;;
53959;SDS011;39866;48.638;-2.020;2024-02-04T12:10:23;20.58;;;7.63;;
53959;SDS011;39866;48.638;-2.020;2024-02-04T12:12:49;20.27;;;7.65;;
53959;SDS011;39866;48.638;-2.020;2024-02-04T12:15:15;17.17;;;7.28;;
53959;SDS011;39866;48.638;-2.020;2024-02-04T12:17:41;17.92;;;7.00;;
53959;SDS011;39866;48.638;-2.020;2024-02-04T12:20:07;16.05;;;6.97;;
53959;SDS011;39866;48.638;-2.020;2024-02-04T12:22:32;22.20;;;7.93;;
53959;SDS011;39866;48.638;-2.020;2024-02-04T12:24:58;17.75;;;6.88;;
53959;SDS011;39866;48.638;-2.020;2024-02-04T12:27:25;16.10;;;7.03;;
53959;SDS011;39866;48.638;-2.020;2024-02-04T12:29:51;19.88;;;7.78;;
53959;SDS011;39866;48.638;-2.020;2024-02-04T12:32:17;17.15;;;6.65;;
53959;SDS011;39866;48.638;-2.020;2024-02-04T12:34:47;18.15;;;7.00;;
53959;SDS011;39866;48.638;-2.020;2024-02-04T12:37:13;21.67;;;7.68;;
53959;SDS011;39866;48.638;-2.020;2024-02-04T12:39:39;17.95;;;7.57;;
53959;SDS011;39866;48.638;-2.020;2024-02-04T12:42:04;19.35;;;7.32;;
53959;SDS011;39866;48.638;-2.020;2024-02-04T12:44:30;16.42;;;7.00;;
53959;SDS011;39866;48.638;-2.020;2024-02-04T12:46:58;20.42;;;7.55;;
53959;SDS011;39866;48.638;-2.020;2024-02-04T12:49:24;15.25;;;6.90;;
53959;SDS011;39866;48.638;-2.020;2024-02-04T12:51:50;21.90;;;7.43;;
53959;SDS011;39866;48.638;-2.020;2024-02-04T12:54:20;17.17;;;7.35;;
53959;SDS011;39866;48.638;-2.020;2024-02-04T12:59:32;21.80;;;7.65;;
53959;SDS011;39866;48.638;-2.020;2024-02-04T13:02:02;17.95;;;7.32;;
53959;SDS011;39866;48.638;-2.020;2024-02-04T13:04:38;14.95;;;6.65;;
53959;SDS011;39866;48.638;-2.020;2024-02-04T13:07:08;13.45;;;6.20;;
53959;SDS011;39866;48.638;-2.020;2024-02-04T13:09:34;20.45;;;7.78;;
53959;SDS011;39866;48.638;-2.020;2024-02-04T13:12:04;17.75;;;6.85;;
53959;SDS011;39866;48.638;-2.020;2024-02-04T13:14:30;16.17;;;6.60;;
53959;SDS011;39866;48.638;-2.020;2024-02-04T13:16:55;15.50;;;7.03;;
53959;SDS011;39866;48.638;-2.020;2024-02-04T13:19:21;18.35;;;6.72;;
53959;SDS011;39866;48.638;-2.020;2024-02-04T13:21:46;20.80;;;7.25;;
53959;SDS011;39866;48.638;-2.020;2024-02-04T13:24:12;15.52;;;6.53;;
53959;SDS011;39866;48.638;-2.020;2024-02-04T13:26:37;15.32;;;6.63;;
53959;SDS011;39866;48.638;-2.020;2024-02-04T13:29:03;19.65;;;7.60;;
53959;SDS011;39866;48.638;-2.020;2024-02-04T13:31:28;16.33;;;7.40;;
53959;SDS011;39866;48.638;-2.020;2024-02-04T13:33:53;18.77;;;7.15;;
53959;SDS011;39866;48.638;-2.020;2024-02-04T13:36:22;19.33;;;7.20;;
53959;SDS011;39866;48.638;-2.020;2024-02-04T13:38:48;16.80;;;6.60;;
53959;SDS011;39866;48.638;-2.020;2024-02-04T13:41:13;19.65;;;7.53;;
53959;SDS011;39866;48.638;-2.020;2024-02-04T13:43:38;20.52;;;7.30;;
53959;SDS011;39866;48.638;-2.020;2024-02-04T13:46:05;13.10;;;6.82;;
53959;SDS011;39866;48.638;-2.020;2024-02-04T13:48:30;23.02;;;8.23;;
53959;SDS011;39866;48.638;-2.020;2024-02-04T13:50:56;20.00;;;7.50;;
53959;SDS011;39866;48.638;-2.020;2024-02-04T13:53:21;16.55;;;6.88;;
53959;SDS011;39866;48.638;-2.020;2024-02-04T13:55:50;18.45;;;7.28;;
53959;SDS011;39866;48.638;-2.020;2024-02-04T13:58:15;16.55;;;7.15;;
53959;SDS011;39866;48.638;-2.020;2024-02-04T14:00:43;22.10;;;8.70;;
53959;SDS011;39866;48.638;-2.020;2024-02-04T14:03:08;16.92;;;7.40;;
53959;SDS011;39866;48.638;-2.020;2024-02-04T14:05:34;17.52;;;7.80;;
53959;SDS011;39866;48.638;-2.020;2024-02-04T14:07:59;18.23;;;7.43;;
53959;SDS011;39866;48.638;-2.020;2024-02-04T14:10:24;20.77;;;8.48;;
53959;SDS011;39866;48.638;-2.020;2024-02-04T14:12:50;20.45;;;7.70;;
53959;SDS011;39866;48.638;-2.020;2024-02-04T14:15:15;20.60;;;8.23;;
53959;SDS011;39866;48.638;-2.020;2024-02-04T14:17:41;16.90;;;7.30;;
53959;SDS011;39866;48.638;-2.020;2024-02-04T14:20:07;21.02;;;7.53;;
53959;SDS011;39866;48.638;-2.020;2024-02-04T14:22:34;16.48;;;7.40;;
53959;SDS011;39866;48.638;-2.020;2024-02-04T14:24:59;15.95;;;7.60;;
53959;SDS011;39866;48.638;-2.020;2024-02-04T14:27:27;25.88;;;8.55;;
53959;SDS011;39866;48.638;-2.020;2024-02-04T14:29:53;19.90;;;7.65;;
53959;SDS011;39866;48.638;-2.020;2024-02-04T14:32:19;18.25;;;8.07;;
53959;SDS011;39866;48.638;-2.020;2024-02-04T14:34:44;19.55;;;7.68;;
53959;SDS011;39866;48.638;-2.020;2024-02-04T14:37:10;21.85;;;8.20;;
53959;SDS011;39866;48.638;-2.020;2024-02-04T14:39:36;22.17;;;7.78;;
53959;SDS011;39866;48.638;-2.020;2024-02-04T14:42:02;20.50;;;7.50;;